Time;durP1;ratioP1;P1;durP2;ratioP2;P2;SDS_P1;SDS_P2;PMS_P1;PMS_P2;Temp;Humidity;BMP_temperature;BMP_pressure;BME280_temperature;BME280_humidity;BME280_pressure;Samples;Min_cycle;Max_cycle;Signal;HPM_P1;HPM_P2
2023/10/29 00:00:39;;;;;;;3.90;1.33;;;26.90;57.40;;;;;;5012036;28;20181;-70
2023/10/29 00:03:06;;;;;;;4.70;1.30;;;27.40;53.00;;;;;;5011569;28;20226;-72
2023/10/29 00:05:34;;;;;;;5.67;1.30;;;27.70;50.80;;;;;;5012236;28;20205;-72
2023/10/29 00:08:01;;;;;;;5.30;1.43;;;27.40;45.90;;;;;;5011895;28;20326;-69
2023/10/29 00:10:28;;;;;;;3.60;1.17;;;27.90;44.30;;;;;;5011156;28;20272;-72
2023/10/29 00:12:56;;;;;;;2.80;1.17;;;27.70;45.30;;;;;;5010661;28;20254;-72
2023/10/29 00:15:23;;;;;;;3.03;1.10;;;27.90;43.00;;;;;;5012005;28;20547;-72
2023/10/29 00:21:12;;;;;;;2.50;1.20;;;27.60;40.50;;;;;;5010647;28;20188;-73
2023/10/29 00:23:40;;;;;;;2.20;1.33;;;27.90;41.90;;;;;;5011424;28;20255;-73
2023/10/29 00:26:07;;;;;;;2.17;1.20;;;28.90;36.90;;;;;;5013300;28;20210;-72
2023/10/29 00:28:34;;;;;;;2.63;1.00;;;28.90;34.20;;;;;;5015599;28;20196;-73
2023/10/29 00:31:02;;;;;;;5.13;1.63;;;28.70;36.40;;;;;;5014977;28;20181;-73
2023/10/29 00:33:29;;;;;;;2.17;1.30;;;28.30;33.60;;;;;;5015488;28;20186;-73
2023/10/29 00:35:56;;;;;;;2.77;1.00;;;28.50;31.30;;;;;;5015747;28;20232;-72
2023/10/29 00:38:24;;;;;;;4.67;0.80;;;28.50;29.60;;;;;;5015232;28;20662;-73
2023/10/29 00:40:52;;;;;;;11.20;1.50;;;28.80;27.40;;;;;;5014075;28;20178;-72
2023/10/29 00:43:19;;;;;;;2.87;0.90;;;29.20;25.90;;;;;;5015486;28;20213;-73
2023/10/29 00:45:55;;;;;;;4.30;1.10;;;29.60;25.50;;;;;;5014986;28;20261;-72
2023/10/29 00:48:24;;;;;;;2.10;0.73;;;29.90;22.00;;;;;;5015282;28;20233;-72
2023/10/29 00:50:52;;;;;;;1.10;0.80;;;29.60;20.90;;;;;;5014574;28;20221;-72
2023/10/29 00:53:20;;;;;;;3.23;1.00;;;29.20;22.60;;;;;;5014787;28;20209;-72
2023/10/29 00:55:48;;;;;;;2.47;1.03;;;29.60;20.60;;;;;;5015001;28;20181;-72
2023/10/29 00:58:16;;;;;;;3.03;0.70;;;30.00;21.00;;;;;;5015189;28;20208;-73
2023/10/29 01:00:44;;;;;;;3.83;1.00;;;29.40;9.90;;;;;;5013308;28;20186;-72
2023/10/29 01:03:12;;;;;;;2.37;0.70;;;29.20;12.20;;;;;;4995607;28;20305;-73
2023/10/29 01:05:42;;;;;;;2.37;0.80;;;28.90;10.60;;;;;;4995538;28;20183;-72
2023/10/29 01:11:32;;;;;;;3.57;0.60;;;29.80;4.80;;;;;;5000095;28;20597;-71
2023/10/29 01:14:01;;;;;;;2.50;0.67;;;30.20;7.60;;;;;;5016080;28;20182;-72
2023/10/29 01:16:28;;;;;;;1.57;0.60;;;30.60;8.90;;;;;;5016258;28;20178;-73
2023/10/29 01:18:59;;;;;;;2.93;0.80;;;30.80;7.80;;;;;;5016030;28;20202;-72
2023/10/29 01:21:31;;;;;;;2.40;0.80;;;30.10;3.60;;;;;;5015817;28;20190;-73
2023/10/29 01:24:00;;;;;;;1.33;0.70;;;30.00;2.90;;;;;;5016063;28;20682;-73
2023/10/29 01:26:28;;;;;;;2.22;0.93;;;30.40;4.60;;;;;;4998673;28;20188;-70
2023/10/29 01:28:55;;;;;;;6.43;0.87;;;31.00;10.00;;;;;;5011256;28;20192;-72
2023/10/29 01:31:22;;;;;;;2.27;0.60;;;31.50;3.80;;;;;;5015321;28;20178;-73
2023/10/29 01:37:11;;;;;;;4.40;0.80;;;31.30;1.00;;;;;;5011975;28;20616;-73
2023/10/29 01:39:39;;;;;;;3.43;0.73;;;31.10;1.00;;;;;;5015372;28;20189;-72
2023/10/29 01:42:06;;;;;;;4.37;0.70;;;31.20;1.00;;;;;;5015675;28;20208;-74
2023/10/29 01:44:33;;;;;;;1.80;0.60;;;31.70;1.00;;;;;;5015407;28;20308;-72
2023/10/29 01:49:46;;;;;;;0.90;0.50;;;31.70;1.00;;;;;;5013188;28;20228;-69
2023/10/29 01:52:13;;;;;;;3.20;0.73;;;31.20;1.00;;;;;;5016172;28;20209;-72
2023/10/29 01:54:41;;;;;;;1.40;0.67;;;31.40;1.00;;;;;;5016060;28;20187;-73
2023/10/29 01:57:08;;;;;;;2.23;0.87;;;30.70;1.00;;;;;;5015078;28;20292;-73
2023/10/29 01:59:36;;;;;;;3.53;0.60;;;31.00;1.00;;;;;;5015159;28;20182;-73
2023/10/29 02:02:03;;;;;;;1.30;0.60;;;31.30;1.00;;;;;;5015101;28;20182;-73
2023/10/29 02:04:32;;;;;;;5.00;0.70;;;31.60;1.00;;;;;;5013755;28;20222;-70
2023/10/29 02:06:59;;;;;;;4.03;0.50;;;31.60;1.00;;;;;;5013541;28;20190;-73
2023/10/29 02:09:27;;;;;;;1.07;0.53;;;31.20;1.00;;;;;;5014504;28;20185;-73
2023/10/29 02:11:55;;;;;;;3.53;0.80;;;31.40;1.00;;;;;;5015856;28;20615;-71
2023/10/29 02:14:22;;;;;;;5.40;0.70;;;30.80;1.00;;;;;;5015731;28;20180;-70
2023/10/29 02:16:49;;;;;;;2.10;0.50;;;31.20;1.00;;;;;;5015768;28;20204;-70
2023/10/29 02:19:17;;;;;;;1.87;0.77;;;30.40;1.00;;;;;;5015407;28;20189;-72
2023/10/29 02:21:44;;;;;;;5.90;0.70;;;30.30;1.00;;;;;;5015039;28;20268;-71
2023/10/29 02:24:11;;;;;;;1.33;0.63;;;30.70;1.00;;;;;;5015294;28;20328;-72
2023/10/29 02:26:39;;;;;;;2.80;0.70;;;31.20;1.00;;;;;;5014841;28;20181;-71
2023/10/29 02:29:06;;;;;;;5.03;0.97;;;31.40;1.00;;;;;;5015433;28;20208;-73
2023/10/29 02:31:33;;;;;;;1.67;0.50;;;31.30;1.00;;;;;;5015137;28;20189;-72
2023/10/29 02:34:00;;;;;;;1.67;0.70;;;31.20;1.00;;;;;;5015474;28;20182;-73
2023/10/29 02:36:28;;;;;;;2.40;0.60;;;30.90;1.00;;;;;;5015369;28;20324;-72
2023/10/29 02:38:56;;;;;;;2.40;0.60;;;30.80;1.00;;;;;;5015436;28;20182;-73
2023/10/29 02:41:24;;;;;;;2.93;0.93;;;30.80;1.00;;;;;;5015754;28;20192;-76
2023/10/29 02:43:52;;;;;;;3.43;0.60;;;29.90;1.00;;;;;;5014733;28;20260;-74
2023/10/29 02:46:19;;;;;;;3.60;0.77;;;30.10;1.00;;;;;;5026839;28;20189;-75
2023/10/29 02:48:47;;;;;;;1.77;0.67;;;30.60;1.00;;;;;;5021518;28;20269;-73
2023/10/29 02:51:18;;;;;;;2.73;0.80;;;30.90;1.00;;;;;;5014246;28;20237;-72
2023/10/29 02:53:45;;;;;;;1.57;0.60;;;31.30;1.00;;;;;;5014501;28;20182;-71
2023/10/29 02:56:13;;;;;;;1.43;0.53;;;31.40;1.00;;;;;;5014843;28;20213;-72
2023/10/29 02:58:40;;;;;;;2.77;0.70;;;31.50;1.00;;;;;;5014667;28;20189;-73
2023/10/29 03:01:08;;;;;;;3.80;0.73;;;31.20;1.00;;;;;;5014848;28;20181;-74
2023/10/29 03:03:39;;;;;;;2.20;0.80;;;31.40;1.00;;;;;;5014501;28;20214;-75
2023/10/29 03:06:07;;;;;;;1.63;0.83;;;31.30;1.00;;;;;;5014627;28;20170;-68
2023/10/29 03:08:36;;;;;;;3.30;0.73;;;31.50;1.00;;;;;;5014324;28;20190;-72
2023/10/29 03:11:04;;;;;;;3.30;0.90;;;31.20;1.00;;;;;;5013919;28;20197;-75
2023/10/29 03:13:31;;;;;;;1.80;0.70;;;30.90;1.00;;;;;;5014448;28;20174;-75
2023/10/29 03:15:59;;;;;;;3.17;0.67;;;30.90;1.00;;;;;;5014341;28;20699;-75
2023/10/29 03:18:29;;;;;;;3.03;0.80;;;30.50;1.00;;;;;;5013134;28;20189;-74
2023/10/29 03:20:56;;;;;;;1.93;0.57;;;30.70;1.00;;;;;;5014175;28;20190;-73
2023/10/29 03:24:03;;;;;;;4.43;0.77;;;31.00;1.00;;;;;;5013429;28;20299;-74
2023/10/29 03:26:30;;;;;;;4.33;0.70;;;31.30;1.00;;;;;;5014160;28;20185;-73
2023/10/29 03:28:57;;;;;;;1.67;0.68;;;31.80;1.00;;;;;;5013403;28;20649;-70
2023/10/29 03:31:24;;;;;;;2.63;1.00;;;31.70;1.00;;;;;;5012361;28;20553;-73
2023/10/29 03:33:52;;;;;;;3.50;0.60;;;31.60;1.00;;;;;;5012462;28;20285;-75
2023/10/29 03:36:19;;;;;;;4.77;0.70;;;31.50;1.00;;;;;;5012918;28;20228;-73
2023/10/29 03:38:46;;;;;;;3.13;0.70;;;31.60;1.00;;;;;;5013327;28;20526;-72
2023/10/29 03:41:23;;;;;;;3.53;0.90;;;31.70;1.00;;;;;;5013964;28;20178;-73
2023/10/29 03:43:51;;;;;;;3.30;0.70;;;32.10;1.00;;;;;;5012177;28;20221;-72
2023/10/29 03:46:18;;;;;;;0.77;0.50;;;31.90;1.00;;;;;;5011527;28;20184;-74
2023/10/29 03:48:45;;;;;;;1.90;0.90;;;31.70;1.00;;;;;;5011697;28;20212;-73
2023/10/29 03:51:14;;;;;;;2.85;0.90;;;31.90;1.00;;;;;;5011687;28;20234;-72
2023/10/29 03:53:42;;;;;;;1.02;0.63;;;32.00;1.00;;;;;;5011603;28;20685;-72
2023/10/29 03:56:09;;;;;;;3.33;0.70;;;32.00;1.00;;;;;;5011719;28;20178;-72
2023/10/29 03:58:36;;;;;;;4.80;0.93;;;32.20;1.00;;;;;;5011254;28;20194;-72
2023/10/29 04:01:04;;;;;;;2.20;0.90;;;31.20;1.00;;;;;;5013081;28;20517;-74
2023/10/29 04:06:53;;;;;;;2.83;0.73;;;30.60;1.00;;;;;;5012998;28;20747;-73
2023/10/29 04:09:20;;;;;;;1.10;0.70;;;30.90;1.00;;;;;;5012933;28;20257;-74
2023/10/29 04:11:48;;;;;;;4.17;1.83;;;31.20;1.00;;;;;;5013238;28;20639;-71
2023/10/29 04:14:15;;;;;;;2.40;1.07;;;31.50;1.00;;;;;;5013517;28;20277;-71
2023/10/29 04:16:42;;;;;;;5.93;1.33;;;31.70;1.00;;;;;;5013353;28;20166;-72
2023/10/29 04:19:10;;;;;;;1.80;1.00;;;31.90;1.00;;;;;;5011905;28;20355;-72
2023/10/29 04:21:37;;;;;;;1.10;0.70;;;32.00;1.00;;;;;;5013314;28;20264;-73
2023/10/29 04:24:04;;;;;;;2.15;0.90;;;32.10;1.00;;;;;;5012594;28;20221;-73
2023/10/29 04:26:32;;;;;;;2.80;1.20;;;32.10;1.00;;;;;;5013485;28;20250;-71
2023/10/29 04:28:59;;;;;;;2.15;1.17;;;32.20;1.00;;;;;;5013305;28;20647;-73
2023/10/29 04:31:27;;;;;;;2.50;1.47;;;32.30;1.00;;;;;;5013385;28;20178;-75
2023/10/29 04:33:54;;;;;;;4.68;1.00;;;32.40;1.00;;;;;;5013039;28;20209;-71
2023/10/29 04:36:25;;;;;;;4.07;1.40;;;32.10;1.00;;;;;;5013413;28;20236;-73
2023/10/29 04:38:53;;;;;;;2.90;1.17;;;31.60;1.00;;;;;;5013386;28;20269;-72
2023/10/29 04:41:20;;;;;;;2.93;1.30;;;31.10;1.00;;;;;;5013157;28;20236;-71
2023/10/29 04:43:48;;;;;;;3.73;1.10;;;30.90;1.00;;;;;;5012885;28;20737;-72
2023/10/29 04:46:15;;;;;;;4.97;1.10;;;31.10;1.00;;;;;;5013177;28;20196;-72
2023/10/29 04:48:43;;;;;;;5.10;1.27;;;31.00;1.00;;;;;;5013332;28;20200;-73
2023/10/29 04:51:11;;;;;;;3.77;1.10;;;31.10;1.00;;;;;;5013161;28;20226;-74
2023/10/29 04:53:38;;;;;;;6.63;1.27;;;31.10;2.10;;;;;;5012698;28;20575;-73
2023/10/29 04:56:06;;;;;;;1.10;0.60;;;31.10;2.10;;;;;;5013718;28;20178;-74
2023/10/29 04:58:33;;;;;;;2.50;0.70;;;30.80;2.70;;;;;;5012687;28;20182;-73
2023/10/29 05:01:01;;;;;;;5.17;0.87;;;30.60;3.60;;;;;;4990191;28;20185;-74
2023/10/29 05:03:28;;;;;;;4.33;1.00;;;30.60;6.70;;;;;;5010488;28;20206;-73
2023/10/29 05:05:56;;;;;;;4.70;0.93;;;30.30;7.70;;;;;;5011123;28;20269;-75
2023/10/29 05:08:23;;;;;;;3.53;0.90;;;30.40;6.10;;;;;;5010996;28;20205;-74
2023/10/29 05:10:51;;;;;;;2.43;0.90;;;30.20;3.90;;;;;;5011193;28;20190;-72
2023/10/29 05:13:18;;;;;;;5.00;1.03;;;30.30;5.20;;;;;;5014203;28;20192;-75
2023/10/29 05:15:45;;;;;;;5.43;1.30;;;30.30;6.90;;;;;;5015309;28;20174;-75
2023/10/29 05:18:13;;;;;;;5.17;1.40;;;29.80;10.10;;;;;;5015140;28;20551;-76
2023/10/29 05:20:40;;;;;;;6.80;1.10;;;29.60;10.60;;;;;;5015750;28;20189;-75
2023/10/29 05:23:10;;;;;;;4.33;1.03;;;29.50;11.30;;;;;;5014789;28;20206;-76
2023/10/29 05:25:39;;;;;;;6.97;1.13;;;29.50;11.50;;;;;;5015261;28;20240;-74
2023/10/29 05:28:06;;;;;;;3.13;1.10;;;29.60;11.80;;;;;;5015240;28;20248;-73
2023/10/29 05:30:33;;;;;;;2.00;0.80;;;29.50;11.70;;;;;;5014677;28;20272;-73
2023/10/29 05:33:01;;;;;;;3.73;1.10;;;29.30;12.50;;;;;;5015167;28;20177;-74
2023/10/29 05:35:29;;;;;;;6.50;1.63;;;29.20;14.60;;;;;;5015202;28;20201;-73
2023/10/29 05:37:56;;;;;;;3.80;1.20;;;29.30;15.70;;;;;;5014536;28;20212;-73
2023/10/29 05:40:24;;;;;;;3.87;0.77;;;29.30;17.40;;;;;;5014333;28;20193;-73
2023/10/29 05:42:52;;;;;;;2.63;1.10;;;29.00;16.90;;;;;;5015397;28;20206;-73
2023/10/29 05:45:19;;;;;;;4.60;1.10;;;29.00;18.90;;;;;;5014374;28;20251;-73
2023/10/29 05:47:46;;;;;;;1.30;0.77;;;28.90;15.30;;;;;;5013640;28;20190;-73
2023/10/29 05:50:14;;;;;;;4.97;0.87;;;28.90;13.60;;;;;;5014575;28;20304;-73
2023/10/29 05:52:42;;;;;;;3.20;0.87;;;28.80;12.70;;;;;;5014240;28;20174;-72
2023/10/29 05:55:09;;;;;;;0.87;0.70;;;28.70;12.40;;;;;;5014392;28;20185;-74
2023/10/29 05:57:36;;;;;;;2.03;0.90;;;28.60;13.60;;;;;;5014641;28;20304;-73
2023/10/29 06:00:04;;;;;;;2.63;1.07;;;28.50;13.20;;;;;;5015280;28;20328;-74
2023/10/29 06:02:33;;;;;;;2.20;0.63;;;28.40;13.50;;;;;;5015707;28;20180;-74
2023/10/29 06:05:00;;;;;;;2.73;0.87;;;28.30;13.80;;;;;;5015236;28;20705;-73
2023/10/29 06:07:27;;;;;;;6.23;1.00;;;28.20;13.20;;;;;;5015101;28;20174;-77
2023/10/29 06:09:56;;;;;;;3.47;0.67;;;28.40;14.20;;;;;;5015971;28;20178;-74
2023/10/29 06:12:23;;;;;;;1.93;0.90;;;28.40;13.40;;;;;;5014900;28;20521;-73
2023/10/29 06:14:50;;;;;;;4.33;1.23;;;28.10;13.90;;;;;;5015041;28;20210;-72
2023/10/29 06:17:18;;;;;;;3.53;1.00;;;28.00;15.20;;;;;;5013371;28;20181;-71
2023/10/29 06:19:45;;;;;;;1.10;0.83;;;28.00;14.70;;;;;;5014771;28;20240;-75
2023/10/29 06:22:13;;;;;;;3.03;1.07;;;28.00;15.00;;;;;;4994992;28;20236;-73
2023/10/29 06:24:40;;;;;;;3.63;1.00;;;28.10;14.50;;;;;;5013268;28;20217;-74
2023/10/29 06:27:08;;;;;;;3.60;1.00;;;28.10;14.70;;;;;;5013654;28;20225;-74
2023/10/29 06:29:38;;;;;;;1.83;1.00;;;27.80;15.00;;;;;;5013432;28;20623;-71
2023/10/29 06:32:06;;;;;;;3.30;0.93;;;27.30;15.90;;;;;;5013533;28;20178;-74
2023/10/29 06:34:33;;;;;;;2.67;0.87;;;27.00;17.00;;;;;;5013676;28;20567;-73
2023/10/29 06:37:00;;;;;;;2.27;0.73;;;26.80;18.10;;;;;;5012748;28;20292;-71
2023/10/29 06:39:29;;;;;;;2.87;0.83;;;26.80;19.70;;;;;;5013694;28;20232;-73
2023/10/29 06:42:38;;;;;;;5.20;1.47;;;27.10;20.10;;;;;;5013391;28;20170;-72
2023/10/29 06:45:06;;;;;;;6.03;0.97;;;27.30;20.70;;;;;;5013461;28;20197;-73
2023/10/29 06:47:34;;;;;;;3.20;0.90;;;27.50;20.50;;;;;;5013091;28;20996;-71
2023/10/29 06:50:01;;;;;;;2.97;1.20;;;27.60;20.50;;;;;;5012436;28;20226;-74
2023/10/29 06:52:29;;;;;;;2.30;1.20;;;27.60;21.40;;;;;;5013159;28;20178;-72
2023/10/29 06:54:56;;;;;;;2.43;0.93;;;27.50;21.90;;;;;;5013252;28;20643;-74
2023/10/29 06:57:23;;;;;;;7.03;1.23;;;27.30;22.50;;;;;;5012647;28;20594;-73
2023/10/29 06:59:51;;;;;;;3.27;0.80;;;27.10;22.80;;;;;;5011716;28;20217;-72
2023/10/29 07:02:18;;;;;;;4.33;1.20;;;27.00;24.40;;;;;;5013308;28;20697;-74
2023/10/29 07:04:46;;;;;;;6.20;1.00;;;26.90;26.00;;;;;;5012767;28;20214;-72
2023/10/29 07:07:13;;;;;;;3.70;1.13;;;26.70;26.30;;;;;;5012959;28;20579;-73
2023/10/29 07:09:40;;;;;;;2.03;1.00;;;26.60;28.00;;;;;;5013127;28;20947;-73
2023/10/29 07:12:08;;;;;;;2.97;1.17;;;26.50;27.80;;;;;;5011609;28;20214;-73
2023/10/29 07:14:35;;;;;;;3.87;0.97;;;26.50;28.70;;;;;;5012644;28;20166;-72
2023/10/29 07:17:03;;;;;;;4.13;1.37;;;26.40;29.70;;;;;;5012738;28;20197;-72
2023/10/29 07:19:30;;;;;;;5.60;1.57;;;26.30;29.90;;;;;;5012818;28;20254;-70
2023/10/29 07:21:57;;;;;;;5.67;0.87;;;26.20;30.30;;;;;;5012453;28;20178;-70
2023/10/29 07:24:24;;;;;;;3.07;0.80;;;26.00;31.00;;;;;;5012805;28;20252;-72
2023/10/29 07:26:52;;;;;;;3.00;0.87;;;25.90;32.20;;;;;;5012718;28;20611;-72
2023/10/29 07:29:19;;;;;;;2.60;1.07;;;25.60;32.40;;;;;;5012678;28;20189;-74
2023/10/29 07:32:14;;;;;;;4.57;0.90;;;25.40;32.60;;;;;;5012530;28;20233;-71
2023/10/29 07:34:41;;;;;;;2.23;1.10;;;25.20;33.50;;;;;;5012029;28;20186;-73
2023/10/29 07:37:11;;;;;;;4.33;1.00;;;25.10;35.60;;;;;;5010735;28;20572;-73
2023/10/29 07:43:03;;;;;;;3.07;0.97;;;25.00;39.40;;;;;;5011440;28;20284;-73
2023/10/29 07:45:31;;;;;;;3.93;1.07;;;24.90;40.80;;;;;;5012549;28;20185;-71
2023/10/29 07:47:58;;;;;;;2.67;1.07;;;24.80;39.10;;;;;;5012618;28;20186;-70
2023/10/29 07:50:26;;;;;;;2.97;1.30;;;24.60;39.90;;;;;;5011967;28;20222;-72
2023/10/29 07:52:53;;;;;;;4.20;1.30;;;24.60;40.70;;;;;;5011057;28;20204;-73
2023/10/29 07:55:21;;;;;;;3.43;1.00;;;24.50;42.50;;;;;;5012175;28;20204;-71
2023/10/29 07:57:48;;;;;;;9.37;1.40;;;24.30;44.40;;;;;;5012092;28;20174;-72
2023/10/29 08:00:16;;;;;;;3.53;1.00;;;24.10;47.70;;;;;;5012632;28;20186;-73
2023/10/29 08:02:44;;;;;;;5.23;1.30;;;23.90;50.50;;;;;;5012038;28;20193;-73
2023/10/29 08:05:12;;;;;;;5.43;1.10;;;23.80;53.60;;;;;;5011668;28;20560;-72
2023/10/29 08:07:40;;;;;;;5.43;1.00;;;23.70;56.00;;;;;;5012326;28;20185;-72
2023/10/29 08:10:08;;;;;;;6.07;1.40;;;23.50;59.40;;;;;;5012427;28;20186;-76
2023/10/29 08:12:36;;;;;;;6.30;1.20;;;23.40;63.20;;;;;;5013546;28;20185;-70
2023/10/29 08:15:03;;;;;;;3.77;1.53;;;23.30;67.20;;;;;;5013651;28;20193;-71
2023/10/29 08:17:31;;;;;;;3.67;1.20;;;23.30;73.30;;;;;;5013211;28;20177;-70
2023/10/29 08:19:58;;;;;;;4.57;1.30;;;23.10;76.10;;;;;;5013254;28;20193;-75
2023/10/29 08:22:26;;;;;;;5.90;1.30;;;23.10;79.60;;;;;;5013280;28;20177;-71
2023/10/29 08:24:54;;;;;;;2.63;1.23;;;23.00;85.60;;;;;;5013439;28;20276;-71
2023/10/29 08:27:21;;;;;;;6.00;1.43;;;22.90;91.00;;;;;;5013497;28;20181;-73
2023/10/29 08:29:49;;;;;;;4.40;1.20;;;22.80;93.50;;;;;;5013038;28;20269;-72
2023/10/29 08:32:17;;;;;;;6.53;1.63;;;22.80;95.60;;;;;;5013286;28;20548;-73
2023/10/29 08:34:44;;;;;;;4.57;1.30;;;22.60;98.90;;;;;;5013507;28;20181;-72
2023/10/29 08:37:12;;;;;;;9.13;2.23;;;22.60;99.90;;;;;;5013076;28;20177;-73
2023/10/29 08:39:42;;;;;;;4.60;1.20;;;22.50;99.90;;;;;;5013473;28;20201;-74
2023/10/29 08:42:10;;;;;;;6.70;1.37;;;22.40;99.90;;;;;;5013249;28;20205;-73
2023/10/29 08:44:38;;;;;;;7.73;1.40;;;22.30;99.90;;;;;;5013145;28;20205;-73
2023/10/29 08:47:05;;;;;;;8.70;1.77;;;22.20;99.90;;;;;;5013673;28;20174;-69
2023/10/29 08:49:33;;;;;;;5.67;1.47;;;22.20;99.90;;;;;;5016613;28;20189;-72
2023/10/29 08:52:00;;;;;;;3.90;1.50;;;22.20;99.90;;;;;;5016917;28;20178;-73
2023/10/29 08:54:27;;;;;;;7.43;1.60;;;22.10;99.90;;;;;;5016790;28;20170;-72
2023/10/29 08:56:55;;;;;;;3.93;1.60;;;22.00;99.90;;;;;;5016704;28;20190;-72
2023/10/29 08:59:22;;;;;;;3.27;1.27;;;22.10;99.90;;;;;;5016745;28;20642;-71
2023/10/29 09:01:49;;;;;;;4.00;1.13;;;21.90;99.90;;;;;;5016680;28;20189;-71
2023/10/29 09:04:17;;;;;;;7.90;1.60;;;21.90;99.90;;;;;;5016217;28;20291;-73
2023/10/29 09:06:44;;;;;;;5.20;1.13;;;21.80;99.90;;;;;;5016524;28;20186;-73
2023/10/29 09:09:12;;;;;;;6.07;1.30;;;21.70;99.90;;;;;;5016795;28;20178;-73
2023/10/29 09:11:44;;;;;;;3.83;1.20;;;21.60;99.90;;;;;;5016284;28;20177;-74
2023/10/29 09:14:13;;;;;;;3.73;1.30;;;21.60;99.90;;;;;;5016624;28;20182;-74
2023/10/29 09:20:03;;;;;;;9.00;1.43;;;21.40;99.90;;;;;;5006532;28;20708;-73
2023/10/29 09:22:32;;;;;;;5.80;1.43;;;21.30;99.90;;;;;;5014396;28;20190;-76
2023/10/29 09:24:59;;;;;;;5.70;1.23;;;21.30;99.90;;;;;;5014661;28;20655;-74
2023/10/29 09:27:27;;;;;;;5.30;1.50;;;21.20;99.90;;;;;;5014322;28;20182;-75
2023/10/29 09:29:54;;;;;;;4.47;1.20;;;21.20;99.90;;;;;;5014999;28;20313;-74
2023/10/29 09:32:23;;;;;;;4.93;1.27;;;21.20;99.90;;;;;;5014533;28;20192;-71
2023/10/29 09:34:51;;;;;;;4.20;1.13;;;21.20;99.90;;;;;;5013691;28;20753;-74
2023/10/29 09:37:19;;;;;;;8.10;1.47;;;21.10;99.90;;;;;;5015022;28;20186;-75
2023/10/29 09:39:46;;;;;;;5.33;1.30;;;21.10;99.90;;;;;;5014781;28;20174;-74
2023/10/29 09:42:18;;;;;;;3.93;1.40;;;20.90;99.90;;;;;;5014329;28;20204;-74
2023/10/29 09:44:49;;;;;;;6.60;1.33;;;20.90;99.90;;;;;;5014486;28;20225;-74
2023/10/29 09:47:18;;;;;;;6.47;1.63;;;20.90;99.90;;;;;;5014652;28;20184;-73
2023/10/29 09:49:45;;;;;;;4.03;1.30;;;20.80;99.90;;;;;;5014078;28;20690;-72
2023/10/29 09:52:14;;;;;;;3.37;1.03;;;20.60;99.90;;;;;;5014247;28;20194;-73
2023/10/29 09:54:45;;;;;;;5.53;1.83;;;20.50;99.90;;;;;;5014222;28;20198;-74
2023/10/29 09:57:13;;;;;;;2.93;0.97;;;20.40;99.90;;;;;;5015358;28;20217;-76
2023/10/29 09:59:40;;;;;;;6.60;1.50;;;20.30;99.90;;;;;;5013177;28;20309;-72
2023/10/29 10:02:08;;;;;;;3.47;1.47;;;20.20;99.90;;;;;;5015380;28;20177;-69
2023/10/29 10:04:38;;;;;;;5.07;1.47;;;20.10;99.90;;;;;;5014999;28;20210;-71
2023/10/29 10:07:06;;;;;;;6.17;1.50;;;20.20;99.90;;;;;;5015269;28;20185;-72
2023/10/29 10:09:52;;;;;;;3.93;0.93;;;20.20;99.90;;;;;;5015506;28;20640;-74
2023/10/29 10:12:20;;;;;;;8.20;1.30;;;20.10;99.90;;;;;;5015312;28;20658;-73
2023/10/29 10:14:49;;;;;;;7.90;1.20;;;20.10;99.90;;;;;;5014841;28;20202;-74
2023/10/29 10:17:17;;;;;;;6.77;1.50;;;20.00;99.90;;;;;;5015560;28;20592;-74
2023/10/29 10:19:44;;;;;;;4.33;1.20;;;20.00;99.90;;;;;;5015724;28;20248;-74
2023/10/29 10:22:11;;;;;;;4.60;1.53;;;19.90;99.90;;;;;;5015811;28;20210;-74
2023/10/29 10:24:43;;;;;;;4.53;1.20;;;19.80;99.90;;;;;;5016000;28;20205;-72
2023/10/29 10:27:11;;;;;;;3.13;1.40;;;19.60;99.90;;;;;;5016069;28;20175;-73
2023/10/29 10:29:38;;;;;;;6.97;1.33;;;19.50;99.90;;;;;;5016562;28;20220;-73
2023/10/29 10:32:08;;;;;;;7.57;1.50;;;19.40;99.90;;;;;;5015597;28;20190;-74
2023/10/29 10:34:38;;;;;;;4.43;1.43;;;19.30;99.90;;;;;;5015301;28;20196;-73
2023/10/29 10:37:06;;;;;;;3.17;1.20;;;19.30;99.90;;;;;;5015436;28;20170;-72
2023/10/29 10:39:34;;;;;;;9.97;1.70;;;19.20;99.90;;;;;;5014946;28;20284;-73
2023/10/29 10:42:03;;;;;;;8.07;1.80;;;19.10;99.90;;;;;;5014730;28;20655;-73
2023/10/29 10:44:31;;;;;;;6.47;1.40;;;19.00;99.90;;;;;;5014634;28;20744;-72
2023/10/29 10:47:02;;;;;;;6.47;1.30;;;19.00;99.90;;;;;;5014512;28;20243;-75
2023/10/29 10:49:32;;;;;;;5.73;1.20;;;18.80;99.90;;;;;;5014677;28;20185;-74
2023/10/29 10:52:01;;;;;;;4.50;1.27;;;18.80;99.90;;;;;;5014586;28;20644;-74
2023/10/29 10:54:31;;;;;;;8.37;2.40;;;18.70;99.90;;;;;;5014637;28;20222;-74
2023/10/29 10:57:01;;;;;;;6.90;1.50;;;18.60;99.90;;;;;;5014387;28;20185;-73
2023/10/29 10:59:29;;;;;;;7.33;1.13;;;18.60;99.90;;;;;;5014468;28;20259;-73
2023/10/29 11:01:56;;;;;;;6.33;1.87;;;18.50;99.90;;;;;;5014506;28;20191;-75
2023/10/29 11:04:26;;;;;;;3.13;1.37;;;18.50;99.90;;;;;;5014156;28;20278;-71
2023/10/29 11:06:54;;;;;;;4.83;1.10;;;18.50;99.90;;;;;;5014283;28;20182;-72
2023/10/29 11:09:23;;;;;;;8.00;1.67;;;18.40;99.90;;;;;;5014220;28;20190;-74
2023/10/29 11:11:54;;;;;;;4.87;1.60;;;18.40;99.90;;;;;;5014353;28;20181;-74
2023/10/29 11:14:22;;;;;;;3.13;1.27;;;18.20;99.90;;;;;;5014030;28;20182;-70
2023/10/29 11:16:59;;;;;;;4.00;1.17;;;18.20;99.90;;;;;;5013932;28;20237;-75
2023/10/29 11:19:44;;;;;;;4.37;1.33;;;18.10;99.90;;;;;;5013878;28;20174;-73
2023/10/29 11:22:31;;;;;;;3.03;1.37;;;18.10;99.90;;;;;;5014054;28;20175;-73
2023/10/29 11:25:11;;;;;;;5.97;1.60;;;18.00;99.90;;;;;;5013698;28;20308;-73
2023/10/29 11:27:46;;;;;;;6.53;1.77;;;17.90;99.90;;;;;;5012354;28;20205;-69
2023/10/29 11:30:59;;;;;;;4.00;1.60;;;17.80;99.90;;;;;;5013482;28;20205;-72
2023/10/29 11:33:27;;;;;;;4.10;1.53;;;17.80;99.90;;;;;;5013358;28;20208;-75
2023/10/29 11:36:33;;;;;;;4.50;1.33;;;17.70;99.90;;;;;;5013672;28;20178;-73
2023/10/29 11:39:15;;;;;;;3.80;1.70;;;17.60;99.90;;;;;;5012370;28;20186;-72
2023/10/29 11:41:44;;;;;;;7.10;1.67;;;17.50;99.90;;;;;;5013695;28;20215;-73
2023/10/29 11:44:20;;;;;;;8.17;1.53;;;17.50;99.90;;;;;;5013463;28;20242;-73
2023/10/29 11:46:56;;;;;;;6.17;1.40;;;17.40;99.90;;;;;;5013674;28;20196;-74
2023/10/29 11:49:27;;;;;;;5.70;1.53;;;17.30;99.90;;;;;;5013577;28;20197;-73
2023/10/29 11:52:06;;;;;;;5.13;1.70;;;17.30;99.90;;;;;;5013619;28;20182;-74
2023/10/29 11:54:37;;;;;;;2.97;1.23;;;17.30;99.90;;;;;;5013295;28;20341;-72
2023/10/29 11:57:06;;;;;;;6.07;1.80;;;17.20;99.90;;;;;;5013615;28;20213;-73
2023/10/29 11:59:33;;;;;;;4.03;1.40;;;17.20;99.90;;;;;;5013527;28;20264;-73
2023/10/29 12:02:01;;;;;;;3.37;1.30;;;17.10;99.90;;;;;;5013521;28;20590;-72
2023/10/29 12:04:32;;;;;;;3.23;1.23;;;17.10;99.90;;;;;;5013304;28;20698;-73
2023/10/29 12:07:00;;;;;;;6.90;1.60;;;17.10;99.90;;;;;;5013528;28;20174;-74
2023/10/29 12:09:27;;;;;;;4.63;2.00;;;17.10;99.90;;;;;;5013457;28;20526;-74
2023/10/29 12:11:55;;;;;;;4.03;1.87;;;17.10;99.90;;;;;;5013339;28;20761;-73
2023/10/29 12:14:43;;;;;;;4.53;1.80;;;17.10;99.90;;;;;;5013041;28;20188;-69
2023/10/29 12:17:11;;;;;;;5.33;1.67;;;17.10;99.90;;;;;;5013492;28;20606;-72
2023/10/29 12:19:46;;;;;;;7.33;2.40;;;17.00;99.90;;;;;;5013350;28;20177;-74
2023/10/29 12:22:25;;;;;;;6.73;2.40;;;16.90;99.90;;;;;;5014394;28;20544;-73
2023/10/29 12:24:59;;;;;;;6.63;2.10;;;16.80;99.90;;;;;;5015556;28;20217;-73
2023/10/29 12:27:30;;;;;;;5.73;2.20;;;16.70;99.90;;;;;;5017525;28;20236;-73
2023/10/29 12:29:57;;;;;;;5.87;1.97;;;16.70;99.90;;;;;;5017051;28;20185;-72
2023/10/29 12:32:26;;;;;;;5.50;2.27;;;16.60;99.90;;;;;;5017527;28;20523;-74
2023/10/29 12:34:58;;;;;;;5.40;2.20;;;16.50;99.90;;;;;;5016809;28;20178;-72
2023/10/29 12:37:30;;;;;;;7.17;2.37;;;16.50;99.90;;;;;;5016783;28;20651;-71
2023/10/29 12:39:59;;;;;;;7.53;2.33;;;16.40;99.90;;;;;;5017227;28;20170;-74
2023/10/29 12:42:48;;;;;;;6.80;2.30;;;16.40;99.90;;;;;;5016981;28;20265;-72
2023/10/29 12:45:27;;;;;;;7.37;2.43;;;16.40;99.90;;;;;;5016541;28;20587;-72
2023/10/29 12:48:14;;;;;;;7.67;2.60;;;16.30;99.90;;;;;;5016948;28;20722;-72
2023/10/29 12:50:51;;;;;;;2.60;1.53;;;16.30;99.90;;;;;;5015319;28;20295;-73
2023/10/29 12:53:26;;;;;;;6.50;2.00;;;16.30;99.90;;;;;;5016668;28;20181;-72
2023/10/29 12:55:54;;;;;;;7.97;2.33;;;16.20;99.90;;;;;;5016492;28;20232;-72
2023/10/29 12:58:21;;;;;;;4.57;1.77;;;16.20;99.90;;;;;;5016373;28;20220;-72
2023/10/29 13:00:51;;;;;;;7.73;2.47;;;16.10;99.90;;;;;;5016838;28;20182;-72
2023/10/29 13:03:19;;;;;;;5.17;1.93;;;16.10;99.90;;;;;;5016524;28;20297;-72
2023/10/29 13:05:47;;;;;;;6.83;2.60;;;16.00;99.90;;;;;;5015987;28;20190;-73
2023/10/29 13:08:15;;;;;;;8.00;2.40;;;16.10;99.90;;;;;;5016599;28;20174;-72
2023/10/29 13:10:46;;;;;;;8.23;2.47;;;16.10;99.90;;;;;;5016248;28;20240;-73
2023/10/29 13:13:15;;;;;;;7.70;2.53;;;16.10;99.90;;;;;;5016344;28;20221;-72
2023/10/29 13:15:43;;;;;;;6.10;2.60;;;16.00;99.90;;;;;;5016398;28;20182;-71
2023/10/29 13:18:10;;;;;;;6.03;2.53;;;16.00;99.90;;;;;;5016500;28;20261;-74
2023/10/29 13:20:38;;;;;;;10.03;2.53;;;16.00;99.90;;;;;;5015994;28;20217;-73
2023/10/29 13:23:05;;;;;;;5.80;2.07;;;16.00;99.90;;;;;;5016032;28;20715;-72